Time;durP1;ratioP1;P1;durP2;ratioP2;P2;SDS_P1;SDS_P2;PMS_P1;PMS_P2;Temp;Humidity;BMP_temperature;BMP_pressure;BME280_temperature;BME280_humidity;BME280_pressure;Samples;Min_cycle;Max_cycle;Signal;HPM_P1;HPM_P2
2024/01/02 00:04:27;;;;;;;;;;;1.50;99.90;;;;;;21093323;28;20054;-77
2024/01/02 00:14:28;;;;;;;;;;;1.60;99.90;;;;;;21078516;28;19965;-76
2024/01/02 00:24:29;;;;;;;;;;;1.60;99.90;;;;;;21090974;28;19928;-77
2024/01/02 00:34:29;;;;;;;;;;;1.50;99.90;;;;;;21083184;28;19920;-77
2024/01/02 00:44:30;;;;;;;;;;;1.40;99.90;;;;;;21085166;28;19923;-77
2024/01/02 00:54:30;;;;;;;;;;;1.50;99.90;;;;;;21070138;28;19912;-77
2024/01/02 01:04:31;;;;;;;;;;;1.40;99.90;;;;;;21098482;28;20382;-78
2024/01/02 01:14:32;;;;;;;;;;;1.60;99.90;;;;;;21079921;28;19912;-78
2024/01/02 01:24:33;;;;;;;;;;;1.80;99.90;;;;;;21094891;28;19923;-78
2024/01/02 01:34:33;;;;;;;;;;;1.90;99.90;;;;;;21078148;28;19920;-77
2024/01/02 01:44:34;;;;;;;;;;;1.90;99.90;;;;;;21077198;28;19920;-79
2024/01/02 01:54:35;;;;;;;;;;;1.90;99.90;;;;;;21078025;28;19912;-79
2024/01/02 02:04:40;;;;;;;;;;;1.90;99.90;;;;;;21085704;28;20405;-79
2024/01/02 02:14:40;;;;;;;;;;;2.00;99.90;;;;;;21079585;28;19916;-78
2024/01/02 02:24:41;;;;;;;;;;;2.00;99.90;;;;;;21119093;28;19958;-78
2024/01/02 02:34:42;;;;;;;;;;;2.00;99.90;;;;;;21119279;28;19912;-78
2024/01/02 02:44:43;;;;;;;;;;;2.10;99.90;;;;;;21108075;28;19916;-77
2024/01/02 02:54:43;;;;;;;;;;;2.20;99.90;;;;;;21102545;28;19989;-78
2024/01/02 03:04:44;;;;;;;;;;;2.30;99.90;;;;;;21083255;28;19916;-77
2024/01/02 03:14:45;;;;;;;;;;;2.40;99.90;;;;;;21096108;28;19924;-77
2024/01/02 03:24:45;;;;;;;;;;;2.50;99.90;;;;;;21091102;28;19920;-76
2024/01/02 03:34:47;;;;;;;;;;;2.70;99.90;;;;;;21089622;28;20011;-77
2024/01/02 03:44:47;;;;;;;;;;;2.70;99.90;;;;;;21091427;28;19916;-78
2024/01/02 03:54:48;;;;;;;;;;;2.70;99.90;;;;;;21094156;28;19999;-77
2024/01/02 04:04:49;;;;;;;;;;;2.80;99.90;;;;;;21092992;28;19963;-77
2024/01/02 04:14:50;;;;;;;;;;;2.70;99.90;;;;;;21093209;28;20398;-78
2024/01/02 04:24:50;;;;;;;;;;;2.60;99.90;;;;;;21097561;28;19916;-78
2024/01/02 04:34:51;;;;;;;;;;;2.70;99.90;;;;;;21097867;28;19920;-78
2024/01/02 04:44:52;;;;;;;;;;;2.80;99.90;;;;;;21093806;28;20351;-78
2024/01/02 04:54:52;;;;;;;;;;;2.90;99.90;;;;;;21093759;28;19958;-78
2024/01/02 05:04:53;;;;;;;;;;;2.70;99.90;;;;;;21089319;28;20363;-78
2024/01/02 05:14:54;;;;;;;;;;;2.70;99.90;;;;;;21082321;28;19919;-76
2024/01/02 05:24:54;;;;;;;;;;;2.80;99.90;;;;;;21079942;28;19924;-77
2024/01/02 05:34:55;;;;;;;;;;;2.90;99.90;;;;;;21082011;28;19973;-77
2024/01/02 05:44:55;;;;;;;;;;;3.10;99.90;;;;;;21082513;28;19923;-78
2024/01/02 05:54:56;;;;;;;;;;;3.20;99.90;;;;;;21081626;28;19919;-78
2024/01/02 06:04:57;;;;;;;;;;;3.40;99.90;;;;;;21081020;28;19924;-77
2024/01/02 06:14:57;;;;;;;;;;;3.50;99.90;;;;;;21083516;28;19965;-77
2024/01/02 06:24:58;;;;;;;;;;;3.60;99.90;;;;;;21083383;28;19958;-77
2024/01/02 06:34:59;;;;;;;;;;;3.80;99.90;;;;;;21062737;28;20389;-78
2024/01/02 06:44:59;;;;;;;;;;;4.00;99.90;;;;;;21080044;28;20011;-77
2024/01/02 06:55:00;;;;;;;;;;;4.20;99.90;;;;;;21110620;28;20834;-78
2024/01/02 07:05:01;;;;;;;;;;;4.30;99.90;;;;;;21133790;28;19924;-78
2024/01/02 07:15:02;;;;;;;;;;;4.90;99.90;;;;;;21141873;28;19951;-78
2024/01/02 07:25:03;;;;;;;;;;;5.10;99.90;;;;;;21135131;28;19920;-78
2024/01/02 07:35:04;;;;;;;;;;;5.50;99.90;;;;;;21138624;28;20024;-78
2024/01/02 07:45:05;;;;;;;;;;;5.80;99.90;;;;;;21141235;28;19920;-78
2024/01/02 07:55:08;;;;;;;;;;;6.00;99.90;;;;;;21142413;28;19927;-78
2024/01/02 08:05:09;;;;;;;;;;;6.20;99.90;;;;;;21138460;28;20079;-78
2024/01/02 08:15:10;;;;;;;;;;;6.20;99.90;;;;;;21142806;28;19912;-78
2024/01/02 08:25:10;;;;;;;;;;;6.00;99.90;;;;;;21143582;28;20570;-78
2024/01/02 08:35:11;;;;;;;;;;;6.30;99.90;;;;;;21146794;28;19998;-79
2024/01/02 08:45:12;;;;;;;;;;;6.50;99.90;;;;;;21137382;28;19915;-77
2024/01/02 08:55:12;;;;;;;;;;;6.50;99.90;;;;;;21123956;28;19918;-78
2024/01/02 09:05:13;;;;;;;;;;;6.40;99.90;;;;;;21124998;28;20002;-76
2024/01/02 09:15:15;;;;;;;;;;;6.40;99.90;;;;;;21100760;28;19913;-77
2024/01/02 09:25:16;;;;;;;;;;;6.50;99.90;;;;;;21090122;28;20414;-78
2024/01/02 09:35:17;;;;;;;;;;;6.60;99.90;;;;;;21104637;28;20383;-77
2024/01/02 09:45:24;;;;;;;;;;;6.60;99.90;;;;;;21130484;28;20017;-78
2024/01/02 09:55:34;;;;;;;;;;;6.60;99.90;;;;;;21139231;28;20221;-79
2024/01/02 10:05:51;;;;;;;;;;;6.70;99.90;;;;;;21115748;28;19934;-79
2024/01/02 10:15:52;;;;;;;;;;;6.70;99.90;;;;;;21146594;28;19911;-78
2024/01/02 10:25:54;;;;;;;;;;;6.90;99.90;;;;;;21153906;28;20014;-79
2024/01/02 10:36:00;;;;;;;;;;;6.90;99.90;;;;;;21133684;28;19919;-79
2024/01/02 10:46:08;;;;;;;;;;;7.00;99.90;;;;;;21183526;28;19970;-79
2024/01/02 10:56:13;;;;;;;;;;;7.30;99.90;;;;;;21177574;28;19913;-79
2024/01/02 11:06:23;;;;;;;;;;;7.60;99.90;;;;;;21148394;28;19966;-79
2024/01/02 11:16:24;;;;;;;;;;;7.90;99.90;;;;;;21168037;28;19912;-80
2024/01/02 11:26:27;;;;;;;;;;;7.90;99.90;;;;;;21174349;28;19920;-77
2024/01/02 11:36:38;;;;;;;;;;;8.00;99.90;;;;;;21134643;28;19919;-80
2024/01/02 11:46:42;;;;;;;;;;;8.20;99.90;;;;;;21149724;28;19922;-79
2024/01/02 11:56:43;;;;;;;;;;;8.30;99.90;;;;;;21176785;28;19912;-80
2024/01/02 12:06:56;;;;;;;;;;;8.40;99.90;;;;;;21175266;28;20166;-79
2024/01/02 12:17:00;;;;;;;;;;;8.40;99.90;;;;;;21172044;28;19918;-78
2024/01/02 12:27:03;;;;;;;;;;;8.40;99.90;;;;;;21173575;28;20002;-79
2024/01/02 12:37:04;;;;;;;;;;;8.50;99.90;;;;;;21171950;28;19956;-77
2024/01/02 12:47:06;;;;;;;;;;;8.50;99.90;;;;;;21156775;28;19954;-78
2024/01/02 12:57:07;;;;;;;;;;;8.40;99.90;;;;;;21169614;28;19940;-79
2024/01/02 13:07:11;;;;;;;;;;;8.40;99.90;;;;;;21168457;28;19916;-80
2024/01/02 13:17:13;;;;;;;;;;;8.30;99.90;;;;;;21146505;28;19918;-80
2024/01/02 13:27:15;;;;;;;;;;;8.30;99.90;;;;;;21093811;28;19915;-79
2024/01/02 13:37:26;;;;;;;;;;;8.20;99.90;;;;;;21096290;28;20486;-78
2024/01/02 13:47:30;;;;;;;;;;;8.20;99.90;;;;;;21102721;28;19919;-80
2024/01/02 13:57:34;;;;;;;;;;;8.20;99.90;;;;;;21136623;28;19920;-80
2024/01/02 14:07:40;;;;;;;;;;;8.40;99.90;;;;;;21160320;28;19922;-78
2024/01/02 14:17:41;;;;;;;;;;;8.30;99.90;;;;;;21160519;28;19919;-77
2024/01/02 14:27:42;;;;;;;;;;;8.30;99.90;;;;;;21165629;28;19973;-77
2024/01/02 14:37:45;;;;;;;;;;;8.30;99.90;;;;;;21169141;28;19912;-78
2024/01/02 14:47:55;;;;;;;;;;;8.20;99.90;;;;;;21178169;28;19942;-78
2024/01/02 14:58:02;;;;;;;;;;;8.20;99.90;;;;;;21144557;28;19917;-78
2024/01/02 15:08:10;;;;;;;;;;;8.20;99.90;;;;;;21161783;28;19926;-80
2024/01/02 15:18:20;;;;;;;;;;;8.10;99.90;;;;;;21116778;28;19912;-82
2024/01/02 15:28:30;;;;;;;;;;;8.00;99.90;;;;;;21107019;28;19920;-80
2024/01/02 15:38:31;;;;;;;;;;;7.90;99.90;;;;;;21113453;28;19912;-80
2024/01/02 15:48:40;;;;;;;;;;;8.00;99.90;;;;;;21153038;28;20358;-81
2024/01/02 15:58:56;;;;;;;;;;;7.90;99.90;;;;;;21121067;28;19942;-80
2024/01/02 16:08:57;;;;;;;;;;;8.00;99.90;;;;;;21108739;28;20041;-81
2024/01/02 16:19:16;;;;;;;;;;;8.00;99.90;;;;;;21120235;28;19912;-81
2024/01/02 16:29:46;;;;;;;;;;;8.00;99.90;;;;;;21087019;28;19969;-79
2024/01/02 16:39:47;;;;;;;;;;;8.00;99.90;;;;;;21038083;28;19919;-81
2024/01/02 16:49:49;;;;;;;;;;;7.90;99.90;;;;;;21085781;28;19955;-81
2024/01/02 16:59:49;;;;;;;;;;;7.90;99.90;;;;;;21110750;28;19951;-80
2024/01/02 17:09:51;;;;;;;;;;;8.00;99.90;;;;;;21087960;28;19916;-79
2024/01/02 17:19:52;;;;;;;;;;;8.00;99.90;;;;;;21076840;28;19919;-82
2024/01/02 17:29:53;;;;;;;;;;;8.00;99.90;;;;;;21084743;28;19916;-78
2024/01/02 17:39:54;;;;;;;;;;;8.10;99.90;;;;;;21081105;28;19944;-79
2024/01/02 17:49:54;;;;;;;;;;;8.20;99.90;;;;;;21063062;28;19921;-82
2024/01/02 17:59:58;;;;;;;;;;;8.10;99.90;;;;;;21078780;28;19998;-79
2024/01/02 18:10:17;;;;;;;;;;;8.00;99.90;;;;;;21080574;28;19947;-81
2024/01/02 18:20:21;;;;;;;;;;;8.10;99.90;;;;;;21085067;28;19912;-80
2024/01/02 18:30:43;;;;;;;;;;;8.10;99.90;;;;;;21087468;28;19927;-80
2024/01/02 18:41:01;;;;;;;;;;;8.30;99.90;;;;;;21070966;28;19916;-80
2024/01/02 18:51:05;;;;;;;;;;;8.30;99.90;;;;;;21083805;28;20030;-80
2024/01/02 19:01:11;;;;;;;;;;;8.60;99.90;;;;;;21087956;28;19926;-81
2024/01/02 19:11:14;;;;;;;;;;;8.80;99.90;;;;;;21086067;28;19939;-80
2024/01/02 19:21:17;;;;;;;;;;;9.00;99.90;;;;;;21088937;28;20386;-79
2024/01/02 19:31:18;;;;;;;;;;;9.20;99.90;;;;;;21101829;28;19962;-79
2024/01/02 19:41:18;;;;;;;;;;;9.40;99.90;;;;;;21092142;28;19920;-81
2024/01/02 19:51:19;;;;;;;;;;;9.40;99.90;;;;;;21087738;28;19969;-82
2024/01/02 20:01:20;;;;;;;;;;;9.20;99.90;;;;;;21118801;28;19917;-80
2024/01/02 20:11:28;;;;;;;;;;;8.70;99.90;;;;;;21102617;28;19916;-81
2024/01/02 20:21:29;;;;;;;;;;;8.70;99.90;;;;;;21086947;28;19916;-80
2024/01/02 20:31:30;;;;;;;;;;;8.90;99.90;;;;;;21096670;28;19916;-80
2024/01/02 20:41:49;;;;;;;;;;;9.50;99.90;;;;;;21095075;28;19927;-80
2024/01/02 20:51:50;;;;;;;;;;;9.80;99.90;;;;;;21111500;28;19912;-78
2024/01/02 21:01:56;;;;;;;;;;;10.20;99.90;;;;;;21110874;28;19995;-79
2024/01/02 21:12:06;;;;;;;;;;;10.40;99.90;;;;;;21080437;28;19945;-78
2024/01/02 21:22:33;;;;;;;;;;;10.40;99.90;;;;;;21092551;28;19916;-79
2024/01/02 21:32:34;;;;;;;;;;;10.60;99.90;;;;;;21094034;28;19958;-81
2024/01/02 21:42:35;;;;;;;;;;;10.50;99.90;;;;;;21083117;28;20375;-80
2024/01/02 21:52:44;;;;;;;;;;;10.50;99.90;;;;;;21103482;28;19951;-81
2024/01/02 22:03:04;;;;;;;;;;;10.60;99.90;;;;;;21100855;28;19916;-80
2024/01/02 22:13:06;;;;;;;;;;;10.70;99.90;;;;;;21106031;28;19912;-81
2024/01/02 22:23:09;;;;;;;;;;;10.70;99.90;;;;;;21098795;28;19931;-80
2024/01/02 22:33:30;;;;;;;;;;;10.80;99.90;;;;;;21129032;28;19918;-82
2024/01/02 22:43:30;;;;;;;;;;;10.90;99.90;;;;;;21112355;28;19942;-81
2024/01/02 22:53:31;;;;;;;;;;;10.90;99.90;;;;;;21120487;28;19998;-78
2024/01/02 23:03:32;;;;;;;;;;;10.70;99.90;;;;;;21114278;28;19915;-79
2024/01/02 23:13:40;;;;;;;;;;;10.50;99.90;;;;;;21109312;28;19924;-80
2024/01/02 23:23:57;;;;;;;;;;;10.20;99.90;;;;;;21106867;28;20442;-82
2024/01/02 23:33:59;;;;;;;;;;;10.20;99.90;;;;;;21093067;28;19912;-82
2024/01/02 23:44:00;;;;;;;;;;;10.20;99.90;;;;;;21099121;28;19969;-80
2024/01/02 23:54:01;;;;;;;;;;;10.40;99.90;;;;;;21079469;28;20286;-79
